Relevés horaires Beauvechain (Belgique)


Relevés horaires à Beauvechain - Lundi 21 Janv. 2019
Heure UTC1 Température [°C] Vent [km/h] Hum. [%] Pres.4 [hPa] Visi. [Km] Nébu. [octa] Préc.5 [mm] Cond.
2m. Res. Ros. Dir.2 Vit. Moy. Raf.3
23:00 -2.0 -2.0 -6.2 SSO 3.7 -- 7.4 73 1017.8(-2.4/3h) 12 -- -- --
22:00 -1.6 -3.7 -5.9 S 5.6 -- 7.4 72 1018.7(-1.8/3h) 11 -- -- --
21:00 -1.9 -4 -6.4 SSO 5.6 -- 5.6 71 1019.7(-1.2/3h) 12 -- -- --
20:00 -1.7 -1.7 -5.8 SSO 3.7 -- 5.6 73 1020.3(-1.0/3h) 11 1/8 -- --
19:00 -1.2 -1.2 -5.7 SO 3.7 -- 5.6 71 1020.7(-0.9/3h) 15 1/8 -- --
18:00 -0.6 -0.6 -5.7 SSO 3.7 -- 5.6 68 1021(-1.1/3h) 16 1/8 -- --
17:00 -0.3 -0.3 -5.1 SSO 3.7 -- 5.6 70 1021.2(-1.2/3h) 16 1/8 -- --
16:00 1.0 1.0 -5.9 S 3.7 -- 3.7 60 1021.6(-1.8/3h) 20 2/8 -- --
15:00 2.0 2.0 -5.9 NNO 1.9 -- 3.7 56 1022(-1.9/3h) 20 1/8 -- --
14:00 2.4 2.4 -7.6 NNO 1.9 -- 1.9 48 1022.5(-1.8/3h) 20 1/8 -- --
13:00 2.0 2.0 -5.9 NNO 1.9 -- 3.7 56 1023.2(-1.2/3h) 15 1/8 -- --
12:00 0.9 0.9 -4.4 NNO 1.9 -- 5.6 68 1024(-0.6/3h) 12 1/8 -- --
11:00 -0.2 -0.2 -3.5 NNO 1.9 -- 3.7 78 1024.5(0.1/3h) 10 1/8 -- --
10:00 -1.9 -1.9 -4.4 NNO 1.9 -- 3.7 83 1024.7(1.0/3h) 10 1/8 -- --
09:00 -4.7 -4.7 -6.1 NNO 1.9 -- 5.6 90 1025(1.1/3h) 7 1/8 -- --
08:00 -5.6 -5.6 -7.1 NNO 1.9 -- 3.7 89 1024.7(0.7/3h) 7 1/8 -- --
07:00 -5.4 -5.4 -6.7 NNO 1.9 -- 3.7 91 1024(0.1/3h) 8 1/8 -- --
06:00 -5.5 -5.5 -6.9 SO 3.7 -- 3.7 90 1023.8(-0.2/3h) 8 1/8 -- --
05:00 -5.2 -5.2 -6.8 NNO 1.9 -- 1.9 88 1023.8(-0.2/3h) 7 -- -- --
04:00 -4.3 -4.3 -6.3 NNO 1.9 -- 1.9 86 1023.7(0.3/3h) 11 -- -- --
03:00 -4.8 -4.8 -6.3 NNO 1.9 -- 1.9 89 1024(0.7/3h) 10 -- -- --
02:00 -4.4 -4.4 -6.0 NNO 1.9 -- 1.9 89 1024(0.6/3h) 5 -- -- --
01:00 -3.8 -3.8 -6.3 NNO 1.9 -- 1.9 83 1023.3(0.5/3h) 10 -- -- --
00:00 -4.1 -4.1 -6.0 NNO 1.9 -- 7.4 87 1023.2(1.0/3h) 10 -- -- --

1 Coordinated Universal Time. Actuellement il est 12:00 locale et 11:00 UTC.

2 Le vent souffle depuis la direction indiquée vers la direction oposée.

3 Les rafales max. sont disponible 40 min après l'heure du relevé.

4 Pour les stations d'altitude (plus de 600m) le géopotentiel du niveau le plus proche de la pression obligatoire est indiqué.

5 Les stations disposant d'un diffuseur peuvent indiquer "trace". Cela signifie que des précipitations ont touchés le sol mais que la quantité est inférieure à 0.1 mm.

Récapitulatif de la journée
Température [°C] Vent [km/h] Ensoleillement4 [h] Precipitations totale5 [mm] Pression [Hpa]
Min1 Max.2 Moy.3 Max. Min Max.
-5.7 3.0 0 7.4 0 h 0 min 0 1017.8 1025.0

1 Température minimale relevée entre 18:00 UTC la veille et 18:00 UTC le jour donné.

2 Température maximale relevée entre 06:00 UTC le jour donné et 06:00 UTC le lendemain.

3 Vent moyen de la journée basé sur les relevés horaires.

4 Ensoleillement en heures relevé entre 06:00 UTC la veille et 06:00 UTC le jour donné.

5 Précipitations totales tombées entre 06:00 UTC la jour donné et 06:00 UTC le lendemain.

Graphiques horaires